createdAt,value
2022-08-21T00:01:05.000Z,0
2022-08-21T00:02:20.442Z,0
2022-08-21T00:03:36.000Z,0
2022-08-21T00:04:53.000Z,0
2022-08-21T00:06:09.306Z,0
2022-08-21T00:07:25.000Z,0
2022-08-21T00:08:41.000Z,0
2022-08-21T00:09:58.000Z,0
2022-08-21T00:11:14.000Z,0
2022-08-21T00:12:30.000Z,0
2022-08-21T00:13:47.000Z,0
2022-08-21T00:15:03.000Z,0
2022-08-21T00:16:19.000Z,0
2022-08-21T00:17:35.000Z,0
2022-08-21T00:18:51.000Z,0
2022-08-21T00:20:07.000Z,0
2022-08-21T00:21:23.000Z,0
2022-08-21T00:22:40.000Z,0
2022-08-21T00:23:56.000Z,0
2022-08-21T00:25:12.000Z,0
2022-08-21T00:26:28.000Z,0
2022-08-21T00:27:45.000Z,0
2022-08-21T00:29:01.000Z,0
2022-08-21T00:30:17.000Z,0
2022-08-21T00:31:34.000Z,0
2022-08-21T00:32:50.000Z,0
2022-08-21T00:34:06.000Z,0
2022-08-21T00:35:21.000Z,0
2022-08-21T00:36:38.000Z,0
2022-08-21T00:37:54.000Z,0
2022-08-21T00:39:10.000Z,0
2022-08-21T00:40:27.000Z,0
2022-08-21T00:41:43.000Z,0
2022-08-21T00:42:59.000Z,0
2022-08-21T00:44:15.000Z,0
2022-08-21T00:45:32.000Z,0
2022-08-21T00:46:48.000Z,0
2022-08-21T00:48:04.000Z,0
2022-08-21T00:49:21.000Z,0
2022-08-21T00:50:37.000Z,0
2022-08-21T00:51:52.000Z,0
2022-08-21T00:53:08.000Z,0
2022-08-21T00:54:25.000Z,0
2022-08-21T00:55:41.000Z,0
2022-08-21T00:56:57.835Z,0
2022-08-21T00:58:14.000Z,0
2022-08-21T00:59:30.000Z,0
2022-08-21T01:00:46.000Z,0
2022-08-21T01:02:02.000Z,0
2022-08-21T01:03:19.000Z,0
2022-08-21T01:04:35.000Z,0
2022-08-21T01:05:51.000Z,0
2022-08-21T01:07:08.000Z,0
2022-08-21T01:08:23.000Z,0
2022-08-21T01:09:39.000Z,0
2022-08-21T01:10:55.000Z,0
2022-08-21T01:12:12.000Z,0
2022-08-21T01:13:28.000Z,0
2022-08-21T01:14:44.000Z,0
2022-08-21T01:16:01.000Z,0
2022-08-21T01:17:17.000Z,0
2022-08-21T01:18:33.000Z,0
2022-08-21T01:19:50.000Z,0
2022-08-21T01:21:06.000Z,0
2022-08-21T01:22:22.000Z,0
2022-08-21T01:23:38.000Z,0
2022-08-21T01:24:54.000Z,0
2022-08-21T01:26:10.000Z,0
2022-08-21T01:27:26.000Z,0
2022-08-21T01:28:43.000Z,0
2022-08-21T01:29:59.000Z,0
2022-08-21T01:31:15.000Z,0
2022-08-21T01:32:31.000Z,0
2022-08-21T01:33:48.000Z,0
2022-08-21T01:35:04.000Z,0
2022-08-21T01:36:20.000Z,0
2022-08-21T01:37:37.000Z,0
2022-08-21T01:38:53.000Z,0
2022-08-21T01:40:09.000Z,0
2022-08-21T01:41:24.000Z,0
2022-08-21T01:42:41.000Z,0
2022-08-21T01:43:57.000Z,0
2022-08-21T01:45:13.000Z,0
2022-08-21T01:46:30.000Z,0
2022-08-21T01:47:46.354Z,0
2022-08-21T01:49:02.000Z,0
2022-08-21T01:50:18.000Z,0
2022-08-21T01:51:35.000Z,0
2022-08-21T01:52:51.000Z,0
2022-08-21T01:54:07.000Z,0
2022-08-21T01:55:24.000Z,0
2022-08-21T01:56:40.376Z,0
2022-08-21T01:57:55.000Z,0
2022-08-21T01:59:11.000Z,0
2022-08-21T02:00:28.000Z,0
2022-08-21T02:01:44.000Z,0
2022-08-21T02:03:00.000Z,0
2022-08-21T02:04:17.000Z,0
2022-08-21T02:05:33.000Z,0
2022-08-21T02:06:49.000Z,0
2022-08-21T02:08:05.000Z,0
2022-08-21T02:09:22.000Z,0
2022-08-21T02:10:38.000Z,0
2022-08-21T02:11:54.000Z,0
2022-08-21T02:13:11.000Z,0
2022-08-21T02:14:26.000Z,0
2022-08-21T02:15:42.000Z,0
2022-08-21T02:16:58.000Z,0
2022-08-21T02:18:15.000Z,0
2022-08-21T02:19:31.000Z,0
2022-08-21T02:20:47.000Z,0
2022-08-21T02:22:04.000Z,0
2022-08-21T02:23:20.000Z,0
2022-08-21T02:24:36.000Z,0
2022-08-21T02:25:52.000Z,0
2022-08-21T02:27:09.000Z,0
2022-08-21T02:28:25.000Z,0
2022-08-21T02:29:41.000Z,0
2022-08-21T02:30:57.000Z,0
2022-08-21T02:32:13.000Z,0
2022-08-21T02:33:29.000Z,0
2022-08-21T02:34:46.000Z,0
2022-08-21T02:36:02.000Z,0
2022-08-21T02:37:18.000Z,0
2022-08-21T02:38:34.882Z,0
2022-08-21T02:39:51.000Z,0
2022-08-21T02:41:07.000Z,0
2022-08-21T02:42:23.000Z,0
2022-08-21T02:43:40.000Z,0
2022-08-21T02:44:56.000Z,0
2022-08-21T02:46:12.000Z,0
2022-08-21T02:47:27.000Z,0
2022-08-21T02:48:44.000Z,0
2022-08-21T02:50:00.000Z,0
2022-08-21T02:51:16.772Z,0
2022-08-21T02:52:33.000Z,0
2022-08-21T02:53:49.000Z,0
2022-08-21T02:55:05.000Z,0
2022-08-21T02:56:21.000Z,0
2022-08-21T02:57:38.000Z,0
2022-08-21T02:58:54.000Z,0
2022-08-21T03:00:10.000Z,0
2022-08-21T03:01:27.000Z,0
2022-08-21T03:02:43.000Z,0
2022-08-21T03:03:58.000Z,0
2022-08-21T03:05:14.000Z,0
2022-08-21T03:06:31.000Z,0
2022-08-21T03:07:47.000Z,0
2022-08-21T03:09:03.000Z,0
2022-08-21T03:10:20.000Z,0
2022-08-21T03:11:36.000Z,0
2022-08-21T03:12:52.000Z,0
2022-08-21T03:14:08.000Z,0
2022-08-21T03:15:25.000Z,0
2022-08-21T03:16:41.000Z,0
2022-08-21T03:17:57.000Z,0
2022-08-21T03:19:14.000Z,0
2022-08-21T03:20:29.000Z,0
2022-08-21T03:21:45.000Z,0
2022-08-21T03:23:01.000Z,0
2022-08-21T03:24:18.259Z,0
2022-08-21T03:25:34.000Z,0
2022-08-21T03:26:50.000Z,0
2022-08-21T03:28:07.000Z,0
2022-08-21T03:29:23.415Z,0
2022-08-21T03:30:39.000Z,0
2022-08-21T03:31:55.000Z,0
2022-08-21T03:33:12.000Z,0
2022-08-21T03:34:28.000Z,0
2022-08-21T03:35:44.000Z,0
2022-08-21T03:37:00.000Z,0
2022-08-21T03:38:16.000Z,0
2022-08-21T03:39:32.000Z,0
2022-08-21T03:40:49.000Z,0
2022-08-21T03:42:05.301Z,0
2022-08-21T03:43:21.000Z,0
2022-08-21T03:44:36.000Z,0
2022-08-21T03:45:53.000Z,0
2022-08-21T03:47:09.000Z,0
2022-08-21T03:48:25.000Z,0
2022-08-21T03:49:42.000Z,0
2022-08-21T03:50:58.000Z,1
2022-08-21T03:52:14.000Z,0
2022-08-21T03:53:30.000Z,1
2022-08-21T03:54:47.000Z,1
2022-08-21T03:56:03.000Z,1
2022-08-21T03:57:19.000Z,2
2022-08-21T03:58:35.000Z,2
2022-08-21T03:59:51.000Z,2
2022-08-21T04:01:07.000Z,3
2022-08-21T04:02:23.000Z,2
2022-08-21T04:03:39.000Z,3
2022-08-21T04:04:55.000Z,4
2022-08-21T04:06:12.000Z,9
2022-08-21T04:07:28.000Z,10
2022-08-21T04:08:44.000Z,12
2022-08-21T04:10:00.000Z,11
2022-08-21T04:11:17.092Z,17
2022-08-21T04:12:33.000Z,17
2022-08-21T04:13:49.000Z,22
2022-08-21T04:15:05.000Z,30
2022-08-21T04:16:22.000Z,30
2022-08-21T04:17:37.000Z,39
2022-08-21T04:18:53.000Z,41
2022-08-21T04:20:09.753Z,46
2022-08-21T04:21:25.000Z,57
2022-08-21T04:22:42.000Z,65
2022-08-21T04:23:58.000Z,71
2022-08-21T04:25:14.000Z,79
2022-08-21T04:26:30.000Z,90
2022-08-21T04:27:47.000Z,101
2022-08-21T04:29:03.000Z,113
2022-08-21T04:30:19.000Z,122
2022-08-21T04:31:35.000Z,138
2022-08-21T04:32:52.073Z,153
2022-08-21T04:34:07.000Z,165
2022-08-21T04:35:23.000Z,176
2022-08-21T04:36:39.000Z,196
2022-08-21T04:37:56.019Z,213
2022-08-21T04:39:12.000Z,231
2022-08-21T04:40:28.000Z,246
2022-08-21T04:41:44.000Z,264
2022-08-21T04:43:00.000Z,287
2022-08-21T04:44:17.000Z,305
2022-08-21T04:45:33.000Z,322
2022-08-21T04:46:49.000Z,340
2022-08-21T04:48:05.000Z,358
2022-08-21T04:49:22.000Z,377
2022-08-21T04:50:37.000Z,400
2022-08-21T04:51:53.000Z,415
2022-08-21T04:53:09.000Z,434
2022-08-21T04:54:26.000Z,453
2022-08-21T04:55:42.000Z,472
2022-08-21T04:56:58.000Z,497
2022-08-21T04:58:14.764Z,515
2022-08-21T04:59:30.000Z,539
2022-08-21T05:00:47.000Z,548
2022-08-21T05:02:03.000Z,564
2022-08-21T05:03:19.000Z,587
2022-08-21T05:04:35.000Z,611
2022-08-21T05:05:52.000Z,629
2022-08-21T05:07:07.000Z,654
2022-08-21T05:08:23.000Z,680
2022-08-21T05:09:39.000Z,695
2022-08-21T05:10:56.109Z,723
2022-08-21T05:12:12.000Z,741
2022-08-21T05:13:28.000Z,768
2022-08-21T05:14:44.000Z,784
2022-08-21T05:16:01.000Z,812
2022-08-21T05:17:17.000Z,830
2022-08-21T05:18:33.000Z,859
2022-08-21T05:19:49.000Z,885
2022-08-21T05:21:05.000Z,895
2022-08-21T05:22:22.219Z,915
2022-08-21T05:23:37.000Z,942
2022-08-21T05:24:53.000Z,954
2022-08-21T05:26:09.000Z,977
2022-08-21T05:27:26.000Z,1001
2022-08-21T05:28:42.000Z,1025
2022-08-21T05:29:58.000Z,1040
2022-08-21T05:31:14.000Z,1062
2022-08-21T05:32:31.000Z,1081
2022-08-21T05:33:47.000Z,1094
2022-08-21T05:35:03.000Z,1115
2022-08-21T05:36:19.000Z,1135
2022-08-21T05:37:36.000Z,1152
2022-08-21T05:38:52.000Z,1172
2022-08-21T05:40:07.000Z,1187
2022-08-21T05:41:23.000Z,1208
2022-08-21T05:42:39.978Z,1231
2022-08-21T05:43:56.000Z,1244
2022-08-21T05:45:12.000Z,1262
2022-08-21T05:46:28.000Z,1285
2022-08-21T05:47:44.000Z,1298
2022-08-21T05:49:01.147Z,1309
2022-08-21T05:50:17.000Z,1337
2022-08-21T05:51:33.000Z,1357
2022-08-21T05:52:49.000Z,1383
2022-08-21T05:54:06.000Z,1399
2022-08-21T05:55:22.000Z,1413
2022-08-21T05:56:37.000Z,1429
2022-08-21T05:57:53.000Z,1441
2022-08-21T05:59:10.000Z,1455
2022-08-21T06:00:26.000Z,1469
2022-08-21T06:01:42.491Z,1492
2022-08-21T06:02:58.000Z,1511
2022-08-21T06:04:14.000Z,1523
2022-08-21T06:05:31.000Z,1533
2022-08-21T06:06:47.000Z,1570
2022-08-21T06:08:03.000Z,1597
2022-08-21T06:09:19.000Z,1606
2022-08-21T06:10:36.000Z,1637
2022-08-21T06:11:52.000Z,1645
2022-08-21T06:13:07.000Z,1646
2022-08-21T06:14:23.000Z,1660
2022-08-21T06:15:40.000Z,1670
2022-08-21T06:16:56.000Z,1691
2022-08-21T06:18:12.000Z,1696
2022-08-21T06:19:28.756Z,1719
2022-08-21T06:20:44.000Z,1764
2022-08-21T06:22:01.000Z,1790
2022-08-21T06:23:17.000Z,1813
2022-08-21T06:24:33.000Z,1798
2022-08-21T06:25:49.000Z,1815
2022-08-21T06:27:06.161Z,1903
2022-08-21T06:28:22.000Z,1990
2022-08-21T06:29:37.000Z,1981
2022-08-21T06:30:53.000Z,1957
2022-08-21T06:32:10.000Z,1987
2022-08-21T06:33:26.000Z,1997
2022-08-21T06:34:42.000Z,2044
2022-08-21T06:35:58.000Z,2047
2022-08-21T06:37:15.000Z,2034
2022-08-21T06:38:31.000Z,2079
2022-08-21T06:39:47.000Z,2096
2022-08-21T06:41:03.000Z,2154
2022-08-21T06:42:19.000Z,2189
2022-08-21T06:43:36.000Z,2181
2022-08-21T06:44:52.000Z,2197
2022-08-21T06:46:07.000Z,2194
2022-08-21T06:47:23.000Z,2261
2022-08-21T06:48:40.147Z,2294
2022-08-21T06:49:56.000Z,2310
2022-08-21T06:51:12.000Z,2307
2022-08-21T06:52:28.844Z,2331
2022-08-21T06:53:45.000Z,2314
2022-08-21T06:55:01.000Z,2340
2022-08-21T06:56:17.000Z,2387
2022-08-21T06:57:33.000Z,2424
2022-08-21T06:58:50.000Z,2457
2022-08-21T07:00:06.000Z,2498
2022-08-21T07:01:22.000Z,2502
2022-08-21T07:02:37.000Z,2554
2022-08-21T07:03:53.000Z,2567
2022-08-21T07:05:10.209Z,2548
2022-08-21T07:06:26.000Z,2534
2022-08-21T07:07:42.674Z,2573
2022-08-21T07:08:58.000Z,2560
2022-08-21T07:10:15.000Z,2602
2022-08-21T07:11:31.000Z,2615
2022-08-21T07:12:47.000Z,2621
2022-08-21T07:14:03.000Z,2627
2022-08-21T07:16:36.000Z,2689
2022-08-21T07:19:08.000Z,2730
2022-08-21T07:20:24.000Z,2775
2022-08-21T07:21:40.000Z,2833
2022-08-21T07:22:56.000Z,2845
2022-08-21T07:24:12.710Z,2892
2022-08-21T07:25:28.000Z,2959
2022-08-21T07:26:45.000Z,2949
2022-08-21T07:28:01.000Z,2956
2022-08-21T07:29:17.000Z,2995
2022-08-21T07:30:33.000Z,3053
2022-08-21T07:31:50.000Z,3064
2022-08-21T07:33:06.000Z,3085
2022-08-21T07:34:22.000Z,3145
2022-08-21T07:35:38.000Z,3133
2022-08-21T07:36:54.000Z,3208
2022-08-21T07:38:10.000Z,3266
2022-08-21T07:39:26.000Z,3283
2022-08-21T07:40:42.000Z,3307
2022-08-21T07:41:58.000Z,3319
2022-08-21T07:43:15.000Z,3345
2022-08-21T07:44:31.000Z,3370
2022-08-21T07:45:47.000Z,3388
2022-08-21T07:47:03.000Z,3432
2022-08-21T07:48:20.000Z,3485
2022-08-21T07:49:36.000Z,3579
2022-08-21T07:50:52.000Z,3639
2022-08-21T07:52:08.000Z,3664
2022-08-21T07:53:24.107Z,3762
2022-08-21T07:54:40.000Z,3795
2022-08-21T07:55:56.572Z,3836
2022-08-21T07:57:12.000Z,3813
2022-08-21T07:58:29.000Z,3876
2022-08-21T07:59:44.000Z,3950
2022-08-21T08:01:00.000Z,4005
2022-08-21T08:02:16.000Z,4001
2022-08-21T08:03:32.000Z,4059
2022-08-21T08:04:49.000Z,4125
2022-08-21T08:06:05.000Z,4125
2022-08-21T08:07:21.000Z,4212
2022-08-21T08:08:37.000Z,4263
2022-08-21T08:09:54.000Z,4328
2022-08-21T08:11:10.000Z,4368
2022-08-21T08:12:26.000Z,4442
2022-08-21T08:13:42.000Z,4396
2022-08-21T08:14:59.000Z,4841
2022-08-21T08:16:14.000Z,4836
2022-08-21T08:17:30.000Z,4729
2022-08-21T08:18:46.000Z,4920
2022-08-21T08:20:03.000Z,4962
2022-08-21T08:21:19.000Z,5441
2022-08-21T08:22:35.000Z,4922
2022-08-21T08:23:51.000Z,5072
2022-08-21T08:25:07.000Z,4937
2022-08-21T08:26:24.000Z,5594
2022-08-21T08:27:40.000Z,5730
2022-08-21T08:28:56.000Z,5811
2022-08-21T08:30:12.000Z,5888
2022-08-21T08:31:29.000Z,5904
2022-08-21T08:32:44.000Z,6013
2022-08-21T08:34:00.000Z,5820
2022-08-21T08:35:16.000Z,6052
2022-08-21T08:36:33.000Z,6156
2022-08-21T08:37:49.000Z,6192
2022-08-21T08:39:05.000Z,6144
2022-08-21T08:40:21.000Z,6136
2022-08-21T08:41:38.000Z,6300
2022-08-21T08:42:54.000Z,6619
2022-08-21T08:44:10.000Z,6991
2022-08-21T08:45:26.000Z,7102
2022-08-21T08:46:42.939Z,7485
2022-08-21T08:47:59.000Z,7786
2022-08-21T08:49:14.000Z,7710
2022-08-21T08:50:30.000Z,7464
2022-08-21T08:51:46.000Z,8340
2022-08-21T08:53:03.000Z,5399
2022-08-21T08:54:19.000Z,7196
2022-08-21T08:55:35.000Z,5496
2022-08-21T08:56:51.000Z,6782
2022-08-21T08:58:08.000Z,7374
2022-08-21T08:59:24.285Z,9349
2022-08-21T09:00:40.000Z,8252
2022-08-21T09:01:56.000Z,4097
2022-08-21T09:03:12.000Z,7621
2022-08-21T09:04:29.000Z,7591
2022-08-21T09:05:44.000Z,7257
2022-08-21T09:07:00.000Z,7019
2022-08-21T09:08:16.000Z,7326
2022-08-21T09:09:33.000Z,6805
2022-08-21T09:10:49.000Z,6885
2022-08-21T09:12:05.000Z,7667
2022-08-21T09:13:21.000Z,8113
2022-08-21T09:14:38.000Z,7900
2022-08-21T09:15:54.000Z,1721
2022-08-21T09:17:10.000Z,8312
2022-08-21T09:18:26.000Z,7583
2022-08-21T09:19:43.000Z,7960
2022-08-21T09:20:59.000Z,8040
2022-08-21T09:22:14.000Z,8796
2022-08-21T09:23:30.746Z,8143
2022-08-21T09:24:46.989Z,7453
2022-08-21T09:26:03.218Z,4228
2022-08-21T09:27:19.000Z,4983
2022-08-21T09:28:35.000Z,4569
2022-08-21T09:29:51.000Z,3913
2022-08-21T09:31:08.000Z,1935
2022-08-21T09:32:24.000Z,7013
2022-08-21T09:33:40.000Z,7787
2022-08-21T09:34:56.000Z,8464
2022-08-21T09:36:13.000Z,8493
2022-08-21T09:37:29.000Z,7827
2022-08-21T09:38:44.000Z,6786
2022-08-21T09:40:00.000Z,7243
2022-08-21T09:41:17.000Z,7181
2022-08-21T09:42:33.000Z,7463
2022-08-21T09:43:49.000Z,7410
2022-08-21T09:45:05.000Z,7695
2022-08-21T09:46:21.000Z,7525
2022-08-21T09:47:38.000Z,7577
2022-08-21T09:48:54.000Z,7108
2022-08-21T09:50:10.661Z,7805
2022-08-21T09:51:26.000Z,2780
2022-08-21T09:52:43.000Z,7543
2022-08-21T09:53:59.000Z,6642
2022-08-21T09:55:14.000Z,6583
2022-08-21T09:56:30.000Z,6580
2022-08-21T09:57:47.000Z,6901
2022-08-21T09:59:03.310Z,6875
2022-08-21T10:00:19.000Z,7065
2022-08-21T10:01:35.000Z,1722
2022-08-21T10:02:51.000Z,6870
2022-08-21T10:04:08.000Z,6977
2022-08-21T10:05:24.000Z,7191
2022-08-21T10:06:40.000Z,6646
2022-08-21T10:07:56.000Z,6013
2022-08-21T10:09:13.000Z,6869
2022-08-21T10:10:29.000Z,7239
2022-08-21T10:11:44.000Z,8489
2022-08-21T10:13:00.000Z,6790
2022-08-21T10:14:17.000Z,5932
2022-08-21T10:15:33.000Z,3262
2022-08-21T10:16:49.000Z,6742
2022-08-21T10:18:05.000Z,7367
2022-08-21T10:19:22.000Z,7994
2022-08-21T10:20:38.000Z,8977
2022-08-21T10:21:54.000Z,8852
2022-08-21T10:23:10.000Z,8698
2022-08-21T10:24:26.000Z,8116
2022-08-21T10:25:43.000Z,8118
2022-08-21T10:26:59.000Z,6019
2022-08-21T10:28:14.711Z,8162
2022-08-21T10:29:30.000Z,8196
2022-08-21T10:30:47.000Z,7922
2022-08-21T10:32:03.000Z,7131
2022-08-21T10:33:19.000Z,7320
2022-08-21T10:34:35.000Z,7667
2022-08-21T10:35:52.000Z,7937
2022-08-21T10:37:08.000Z,7553
2022-08-21T10:38:24.000Z,7299
2022-08-21T10:39:40.000Z,7108
2022-08-21T10:42:13.000Z,7490
2022-08-21T10:43:29.000Z,7074
2022-08-21T10:44:44.000Z,6981
2022-08-21T10:46:00.000Z,6909
2022-08-21T10:47:17.000Z,6759
2022-08-21T10:48:33.000Z,6499
2022-08-21T10:49:49.000Z,6584
2022-08-21T10:51:05.000Z,6374
2022-08-21T10:52:22.000Z,6431
2022-08-21T10:53:38.390Z,6242
2022-08-21T10:54:54.602Z,6253
2022-08-21T10:56:10.000Z,5990
2022-08-21T10:57:27.000Z,5815
2022-08-21T10:58:43.000Z,5750
2022-08-21T10:59:59.000Z,6411
2022-08-21T11:01:14.000Z,4578
2022-08-21T11:02:31.000Z,5772
2022-08-21T11:03:47.000Z,5797
2022-08-21T11:05:03.000Z,5815
2022-08-21T11:06:19.000Z,5918
2022-08-21T11:07:35.000Z,5857
2022-08-21T11:08:52.000Z,5848
2022-08-21T11:10:08.000Z,5804
2022-08-21T11:11:24.000Z,5738
2022-08-21T11:12:40.000Z,5717
2022-08-21T11:13:57.000Z,5652
2022-08-21T11:15:13.000Z,5471
2022-08-21T11:16:29.000Z,5463
2022-08-21T11:17:44.000Z,5405
2022-08-21T11:19:01.000Z,5397
2022-08-21T11:20:17.000Z,5474
2022-08-21T11:21:33.000Z,5464
2022-08-21T11:22:49.000Z,5443
2022-08-21T11:24:06.000Z,5670
2022-08-21T11:25:22.000Z,5268
2022-08-21T11:26:38.000Z,5360
2022-08-21T11:27:54.000Z,5350
2022-08-21T11:29:10.000Z,5398
2022-08-21T11:30:27.000Z,5357
2022-08-21T11:31:43.000Z,5259
2022-08-21T11:32:59.000Z,5232
2022-08-21T11:34:14.000Z,5311
2022-08-21T11:35:31.000Z,5278
2022-08-21T11:36:47.000Z,5226
2022-08-21T11:38:03.602Z,5207
2022-08-21T11:39:19.000Z,5131
2022-08-21T11:40:36.000Z,5145
2022-08-21T11:41:52.000Z,5108
2022-08-21T11:43:08.000Z,4983
2022-08-21T11:44:24.772Z,5008
2022-08-21T11:45:40.000Z,5099
2022-08-21T11:46:57.000Z,5194
2022-08-21T11:48:13.000Z,5031
2022-08-21T11:49:29.000Z,5013
2022-08-21T11:50:45.000Z,5148
2022-08-21T11:52:02.000Z,5261
2022-08-21T11:53:17.000Z,5303
2022-08-21T11:54:33.000Z,5360
2022-08-21T11:55:49.000Z,5758
2022-08-21T11:57:06.000Z,5193
2022-08-21T11:58:22.000Z,5805
2022-08-21T11:59:38.000Z,5983
2022-08-21T12:00:54.000Z,6310
2022-08-21T12:02:11.000Z,4750
2022-08-21T12:03:27.000Z,3626
2022-08-21T12:04:43.000Z,6058
2022-08-21T12:05:59.000Z,5955
2022-08-21T12:07:15.000Z,5677
2022-08-21T12:08:32.000Z,5570
2022-08-21T12:09:47.462Z,6092
2022-08-21T12:11:03.000Z,5893
2022-08-21T12:12:19.000Z,5661
2022-08-21T12:13:36.000Z,5526
2022-08-21T12:14:51.000Z,6521
2022-08-21T12:16:07.000Z,5415
2022-08-21T12:17:23.000Z,5563
2022-08-21T12:18:40.000Z,5288
2022-08-21T12:19:56.000Z,5370
2022-08-21T12:21:12.000Z,5238
2022-08-21T12:22:28.828Z,5490
2022-08-21T12:23:45.000Z,5857
2022-08-21T12:25:01.000Z,5724
2022-08-21T12:26:17.000Z,6031
2022-08-21T12:27:33.000Z,5975
2022-08-21T12:28:49.000Z,5989
2022-08-21T12:30:06.000Z,5882
2022-08-21T12:31:21.000Z,6096
2022-08-21T12:32:37.000Z,6021
2022-08-21T12:33:53.000Z,6449
2022-08-21T12:35:10.000Z,6359
2022-08-21T12:36:26.000Z,6454
2022-08-21T12:37:42.000Z,6553
2022-08-21T12:38:58.000Z,6210
2022-08-21T12:40:15.000Z,5456
2022-08-21T12:41:31.000Z,5731
2022-08-21T12:42:47.000Z,5939
2022-08-21T12:44:03.000Z,5536
2022-08-21T12:45:20.000Z,6387
2022-08-21T12:46:36.000Z,5920
2022-08-21T12:47:52.000Z,5837
2022-08-21T12:49:07.000Z,6052
2022-08-21T12:50:23.000Z,5816
2022-08-21T12:51:40.000Z,6460
2022-08-21T12:52:56.000Z,6495
2022-08-21T12:54:12.000Z,6331
2022-08-21T12:55:28.000Z,6265
2022-08-21T12:56:45.000Z,6203
2022-08-21T12:58:01.000Z,6523
2022-08-21T12:59:17.000Z,6789
2022-08-21T13:00:33.822Z,2809
2022-08-21T13:01:50.000Z,6132
2022-08-21T13:03:06.000Z,6246
2022-08-21T13:04:22.000Z,6033
2022-08-21T13:05:37.000Z,6136
2022-08-21T13:06:54.000Z,7361
2022-08-21T13:08:10.000Z,5131
2022-08-21T13:09:26.000Z,5037
2022-08-21T13:10:42.000Z,3775
2022-08-21T13:11:58.000Z,6423
2022-08-21T13:13:15.000Z,3051
2022-08-21T13:14:31.000Z,6549
2022-08-21T13:15:47.000Z,4251
2022-08-21T13:17:03.000Z,3489
2022-08-21T13:18:20.000Z,4946
2022-08-21T13:19:36.000Z,5697
2022-08-21T13:20:52.000Z,5697
2022-08-21T13:22:07.000Z,6099
2022-08-21T13:23:24.000Z,5912
2022-08-21T13:24:40.000Z,5243
2022-08-21T13:25:56.000Z,5665
2022-08-21T13:27:12.000Z,5759
2022-08-21T13:28:28.000Z,5615
2022-08-21T13:29:45.219Z,5056
2022-08-21T13:31:01.000Z,5362
2022-08-21T13:32:17.000Z,5362
2022-08-21T13:33:33.000Z,5831
2022-08-21T13:34:50.000Z,5485
2022-08-21T13:36:06.000Z,5667
2022-08-21T13:37:22.000Z,6038
2022-08-21T13:38:37.862Z,5560
2022-08-21T13:39:54.000Z,5568
2022-08-21T13:41:10.000Z,5449
2022-08-21T13:42:26.000Z,5039
2022-08-21T13:43:42.000Z,4711
2022-08-21T13:44:59.000Z,4851
2022-08-21T13:46:15.000Z,4953
2022-08-21T13:47:31.000Z,5849
2022-08-21T13:48:47.000Z,4524
2022-08-21T13:50:03.000Z,4803
2022-08-21T13:51:20.210Z,4889
2022-08-21T13:52:36.000Z,4927
2022-08-21T13:53:52.000Z,4897
2022-08-21T13:55:07.000Z,4313
2022-08-21T13:56:24.000Z,4581
2022-08-21T13:57:40.000Z,4886
2022-08-21T13:58:56.000Z,3945
2022-08-21T14:00:12.000Z,4309
2022-08-21T14:01:29.000Z,4628
2022-08-21T14:02:45.000Z,4266
2022-08-21T14:04:01.000Z,4487
2022-08-21T14:05:17.000Z,4769
2022-08-21T14:06:34.000Z,4361
2022-08-21T14:07:50.000Z,4550
2022-08-21T14:09:06.000Z,4428
2022-08-21T14:10:22.000Z,4695
2022-08-21T14:11:38.000Z,4810
2022-08-21T14:12:54.000Z,5028
2022-08-21T14:14:10.000Z,4548
2022-08-21T14:15:26.000Z,4180
2022-08-21T14:16:42.000Z,4446
2022-08-21T14:17:59.141Z,2571
2022-08-21T14:19:15.000Z,3444
2022-08-21T14:20:31.000Z,2973
2022-08-21T14:21:47.000Z,2896
2022-08-21T14:23:04.000Z,2942
2022-08-21T14:24:20.000Z,2913
2022-08-21T14:25:36.000Z,2806
2022-08-21T14:26:52.000Z,2980
2022-08-21T14:28:09.000Z,2928
2022-08-21T14:29:24.252Z,2794
2022-08-21T14:30:40.000Z,2651
2022-08-21T14:31:56.000Z,2742
2022-08-21T14:33:12.000Z,2103
2022-08-21T14:34:29.000Z,3939
2022-08-21T14:35:45.000Z,3216
2022-08-21T14:37:01.657Z,3234
2022-08-21T14:38:17.000Z,2169
2022-08-21T14:39:34.000Z,2867
2022-08-21T14:40:50.000Z,2854
2022-08-21T14:42:06.000Z,2928
2022-08-21T14:43:22.000Z,3697
2022-08-21T14:44:39.000Z,2852
2022-08-21T14:45:54.000Z,3025
2022-08-21T14:47:10.000Z,2971
2022-08-21T14:48:26.000Z,1860
2022-08-21T14:49:43.000Z,3314
2022-08-21T14:50:59.000Z,2772
2022-08-21T14:52:15.000Z,2674
2022-08-21T14:53:31.000Z,2533
2022-08-21T14:54:47.000Z,2450
2022-08-21T14:56:04.000Z,2433
2022-08-21T14:57:20.000Z,2465
2022-08-21T14:58:36.000Z,2403
2022-08-21T14:59:52.000Z,2417
2022-08-21T15:01:09.000Z,2591
2022-08-21T15:02:24.000Z,1184
2022-08-21T15:03:40.000Z,2690
2022-08-21T15:04:56.000Z,3083
2022-08-21T15:06:13.000Z,3821
2022-08-21T15:07:29.000Z,2067
2022-08-21T15:08:45.000Z,3557
2022-08-21T15:10:01.000Z,2274
2022-08-21T15:11:17.000Z,2722
2022-08-21T15:12:34.000Z,3330
2022-08-21T15:13:50.000Z,2727
2022-08-21T15:15:06.000Z,2501
2022-08-21T15:16:22.000Z,3090
2022-08-21T15:17:39.000Z,2779
2022-08-21T15:18:54.000Z,2380
2022-08-21T15:20:10.620Z,2317
2022-08-21T15:21:26.000Z,2266
2022-08-21T15:22:43.000Z,2485
2022-08-21T15:23:59.000Z,2727
2022-08-21T15:25:15.000Z,2306
2022-08-21T15:26:31.000Z,2466
2022-08-21T15:27:48.000Z,2244
2022-08-21T15:29:04.000Z,2157
2022-08-21T15:30:20.000Z,2034
2022-08-21T15:31:36.000Z,2106
2022-08-21T15:32:52.000Z,2009
2022-08-21T15:34:09.000Z,2013
2022-08-21T15:35:24.000Z,2157
2022-08-21T15:36:40.670Z,2258
2022-08-21T15:37:56.000Z,1946
2022-08-21T15:39:13.000Z,2394
2022-08-21T15:40:29.000Z,2133
2022-08-21T15:41:45.000Z,2159
2022-08-21T15:43:01.000Z,2200
2022-08-21T15:44:18.000Z,2332
2022-08-21T15:45:34.000Z,2425
2022-08-21T15:46:50.000Z,2416
2022-08-21T15:48:06.000Z,2453
2022-08-21T15:49:23.000Z,2425
2022-08-21T15:50:39.000Z,2413
2022-08-21T15:51:54.000Z,2408
2022-08-21T15:53:10.000Z,2361
2022-08-21T15:54:26.000Z,2347
2022-08-21T15:55:43.000Z,2338
2022-08-21T15:56:59.000Z,2362
2022-08-21T15:58:15.000Z,2386
2022-08-21T15:59:31.000Z,2373
2022-08-21T16:00:48.000Z,2382
2022-08-21T16:02:04.000Z,2402
2022-08-21T16:03:20.000Z,2386
2022-08-21T16:04:36.000Z,2382
2022-08-21T16:05:53.000Z,2378
2022-08-21T16:07:09.000Z,2355
2022-08-21T16:08:24.000Z,2334
2022-08-21T16:09:40.000Z,2293
2022-08-21T16:10:57.005Z,2254
2022-08-21T16:12:13.239Z,2209
2022-08-21T16:13:29.000Z,2185
2022-08-21T16:14:45.000Z,2162
2022-08-21T16:16:01.000Z,2117
2022-08-21T16:17:18.000Z,2078
2022-08-21T16:18:34.000Z,2018
2022-08-21T16:19:50.000Z,2099
2022-08-21T16:21:06.000Z,2057
2022-08-21T16:22:23.000Z,2187
2022-08-21T16:23:39.000Z,2006
2022-08-21T16:24:54.000Z,1984
2022-08-21T16:26:10.000Z,1979
2022-08-21T16:27:27.000Z,1988
2022-08-21T16:28:43.000Z,1961
2022-08-21T16:29:58.000Z,1922
2022-08-21T16:31:14.000Z,1867
2022-08-21T16:32:31.000Z,1825
2022-08-21T16:33:47.000Z,1779
2022-08-21T16:35:03.464Z,1774
2022-08-21T16:36:19.000Z,1756
2022-08-21T16:37:35.000Z,1760
2022-08-21T16:38:52.000Z,1749
2022-08-21T16:40:08.000Z,1733
2022-08-21T16:41:24.000Z,1694
2022-08-21T16:42:40.000Z,1656
2022-08-21T16:43:57.000Z,1620
2022-08-21T16:45:13.000Z,1574
2022-08-21T16:46:28.000Z,1533
2022-08-21T16:47:44.000Z,1514
2022-08-21T16:49:01.042Z,1491
2022-08-21T16:50:17.000Z,1472
2022-08-21T16:51:33.000Z,1456
2022-08-21T16:52:49.000Z,1450
2022-08-21T16:54:06.000Z,1444
2022-08-21T16:55:22.000Z,1411
2022-08-21T16:56:38.000Z,1409
2022-08-21T16:57:54.000Z,1405
2022-08-21T16:59:10.000Z,1395
2022-08-21T17:00:27.000Z,1363
2022-08-21T17:01:43.000Z,1340
2022-08-21T17:02:58.000Z,1319
2022-08-21T17:04:14.000Z,1286
2022-08-21T17:05:31.000Z,1259
2022-08-21T17:06:47.000Z,1243
2022-08-21T17:08:03.000Z,1229
2022-08-21T17:09:19.000Z,1206
2022-08-21T17:10:36.000Z,1177
2022-08-21T17:11:52.000Z,1149
2022-08-21T17:13:08.000Z,1115
2022-08-21T17:14:24.000Z,1095
2022-08-21T17:15:40.950Z,1059
2022-08-21T17:16:57.000Z,1036
2022-08-21T17:18:13.000Z,1010
2022-08-21T17:19:28.000Z,991
2022-08-21T17:20:44.000Z,971
2022-08-21T17:22:01.000Z,952
2022-08-21T17:23:17.000Z,927
2022-08-21T17:24:33.000Z,901
2022-08-21T17:25:49.000Z,877